sensor_id;sensor_type;location;lat;lon;timestamp;pressure;altitude;pressure_sealevel;temperature;humidity
80248;BME280;69560;52.206;21.018;2024-02-26T00:01:00;99334.27;;;9.35;55.61
80248;BME280;69560;52.206;21.018;2024-02-26T00:03:48;99338.91;;;9.41;55.72
80248;BME280;69560;52.206;21.018;2024-02-26T00:06:14;99329.11;;;9.42;55.67
80248;BME280;69560;52.206;21.018;2024-02-26T00:08:41;99326.61;;;9.45;55.79
80248;BME280;69560;52.206;21.018;2024-02-26T00:11:07;99322.65;;;9.45;55.71
80248;BME280;69560;52.206;21.018;2024-02-26T00:13:33;99321.78;;;9.44;55.80
80248;BME280;69560;52.206;21.018;2024-02-26T00:16:00;99320.77;;;9.46;55.84
80248;BME280;69560;52.206;21.018;2024-02-26T00:18:27;99325.75;;;9.46;55.82
80248;BME280;69560;52.206;21.018;2024-02-26T00:20:53;99328.52;;;9.46;55.86
80248;BME280;69560;52.206;21.018;2024-02-26T00:23:20;99330.55;;;9.43;55.85
80248;BME280;69560;52.206;21.018;2024-02-26T00:25:47;99331.17;;;9.42;55.93
80248;BME280;69560;52.206;21.018;2024-02-26T00:28:14;99330.64;;;9.37;55.81
80248;BME280;69560;52.206;21.018;2024-02-26T00:30:40;99329.05;;;9.33;55.97
80248;BME280;69560;52.206;21.018;2024-02-26T00:33:07;99329.20;;;9.35;56.05
80248;BME280;69560;52.206;21.018;2024-02-26T00:35:33;99330.91;;;9.39;56.20
80248;BME280;69560;52.206;21.018;2024-02-26T00:38:00;99329.83;;;9.42;56.18
80248;BME280;69560;52.206;21.018;2024-02-26T00:40:28;99323.81;;;9.42;56.24
80248;BME280;69560;52.206;21.018;2024-02-26T00:42:55;99320.79;;;9.40;56.19
80248;BME280;69560;52.206;21.018;2024-02-26T00:45:22;99313.48;;;9.37;56.09
80248;BME280;69560;52.206;21.018;2024-02-26T00:47:48;99312.63;;;9.36;56.25
80248;BME280;69560;52.206;21.018;2024-02-26T00:50:15;99312.20;;;9.35;56.29
80248;BME280;69560;52.206;21.018;2024-02-26T00:52:41;99311.79;;;9.32;56.34
80248;BME280;69560;52.206;21.018;2024-02-26T00:55:08;99315.02;;;9.31;56.46
80248;BME280;69560;52.206;21.018;2024-02-26T00:57:35;99313.10;;;9.29;56.43
80248;BME280;69560;52.206;21.018;2024-02-26T01:00:02;99315.46;;;9.28;56.52
80248;BME280;69560;52.206;21.018;2024-02-26T01:02:28;99315.14;;;9.27;56.55
80248;BME280;69560;52.206;21.018;2024-02-26T01:04:55;99314.64;;;9.24;56.53
80248;BME280;69560;52.206;21.018;2024-02-26T01:07:22;99314.69;;;9.22;56.42
80248;BME280;69560;52.206;21.018;2024-02-26T01:09:48;99312.79;;;9.20;56.56
80248;BME280;69560;52.206;21.018;2024-02-26T01:12:15;99312.78;;;9.20;56.65
80248;BME280;69560;52.206;21.018;2024-02-26T01:14:42;99313.24;;;9.19;56.61
80248;BME280;69560;52.206;21.018;2024-02-26T01:17:08;99315.75;;;9.16;56.75
80248;BME280;69560;52.206;21.018;2024-02-26T01:19:35;99311.52;;;9.12;56.74
80248;BME280;69560;52.206;21.018;2024-02-26T01:22:01;99308.10;;;9.11;56.86
80248;BME280;69560;52.206;21.018;2024-02-26T01:24:28;99308.75;;;9.04;56.76
80248;BME280;69560;52.206;21.018;2024-02-26T01:26:55;99304.47;;;8.96;56.71
80248;BME280;69560;52.206;21.018;2024-02-26T01:29:22;99304.55;;;8.82;56.57
80248;BME280;69560;52.206;21.018;2024-02-26T01:31:48;99301.92;;;8.72;56.76
80248;BME280;69560;52.206;21.018;2024-02-26T01:34:14;99305.48;;;8.65;56.87
80248;BME280;69560;52.206;21.018;2024-02-26T01:36:41;99305.02;;;8.66;57.28
80248;BME280;69560;52.206;21.018;2024-02-26T01:39:08;99305.81;;;8.68;57.37
80248;BME280;69560;52.206;21.018;2024-02-26T01:41:38;99308.21;;;8.70;57.47
80248;BME280;69560;52.206;21.018;2024-02-26T01:44:05;99313.06;;;8.73;57.60
80248;BME280;69560;52.206;21.018;2024-02-26T01:46:34;99315.14;;;8.76;57.66
80248;BME280;69560;52.206;21.018;2024-02-26T01:49:02;99313.23;;;8.76;57.68
80248;BME280;69560;52.206;21.018;2024-02-26T01:51:30;99311.42;;;8.74;57.62
80248;BME280;69560;52.206;21.018;2024-02-26T01:53:58;99306.39;;;8.71;57.57
80248;BME280;69560;52.206;21.018;2024-02-26T01:56:26;99308.77;;;8.63;57.48
80248;BME280;69560;52.206;21.018;2024-02-26T01:58:57;99311.63;;;8.53;57.30
80248;BME280;69560;52.206;21.018;2024-02-26T02:01:29;99311.75;;;8.43;57.42
80248;BME280;69560;52.206;21.018;2024-02-26T02:03:58;99310.41;;;8.37;57.62
80248;BME280;69560;52.206;21.018;2024-02-26T02:06:25;99303.36;;;8.36;57.83
80248;BME280;69560;52.206;21.018;2024-02-26T02:08:54;99301.41;;;8.32;57.86
80248;BME280;69560;52.206;21.018;2024-02-26T02:11:20;99298.27;;;8.27;57.94
80248;BME280;69560;52.206;21.018;2024-02-26T02:13:47;99301.54;;;8.24;58.03
80248;BME280;69560;52.206;21.018;2024-02-26T02:16:14;99303.73;;;8.18;58.09
80248;BME280;69560;52.206;21.018;2024-02-26T02:18:40;99305.90;;;8.15;58.32
80248;BME280;69560;52.206;21.018;2024-02-26T02:21:07;99307.36;;;8.18;58.51
80248;BME280;69560;52.206;21.018;2024-02-26T02:23:33;99311.20;;;8.22;58.52
80248;BME280;69560;52.206;21.018;2024-02-26T02:26:00;99314.45;;;8.27;58.65
80248;BME280;69560;52.206;21.018;2024-02-26T02:28:27;99314.77;;;8.31;58.77
80248;BME280;69560;52.206;21.018;2024-02-26T02:30:54;99310.32;;;8.37;58.83
80248;BME280;69560;52.206;21.018;2024-02-26T02:33:22;99314.16;;;8.41;58.88
80248;BME280;69560;52.206;21.018;2024-02-26T02:35:49;99317.92;;;8.45;58.83
80248;BME280;69560;52.206;21.018;2024-02-26T02:38:17;99313.61;;;8.47;58.96
80248;BME280;69560;52.206;21.018;2024-02-26T02:40:43;99320.69;;;8.50;58.93
80248;BME280;69560;52.206;21.018;2024-02-26T02:43:10;99320.16;;;8.53;58.97
80248;BME280;69560;52.206;21.018;2024-02-26T02:45:36;99318.45;;;8.56;58.92
80248;BME280;69560;52.206;21.018;2024-02-26T02:48:04;99320.98;;;8.56;58.95
80248;BME280;69560;52.206;21.018;2024-02-26T02:50:30;99317.77;;;8.58;58.94
80248;BME280;69560;52.206;21.018;2024-02-26T02:52:57;99321.70;;;8.63;58.86
80248;BME280;69560;52.206;21.018;2024-02-26T02:55:23;99327.10;;;8.65;58.77
80248;BME280;69560;52.206;21.018;2024-02-26T02:57:50;99324.36;;;8.67;58.75
80248;BME280;69560;52.206;21.018;2024-02-26T03:00:17;99327.61;;;8.68;58.64
80248;BME280;69560;52.206;21.018;2024-02-26T03:02:43;99333.30;;;8.67;58.61
80248;BME280;69560;52.206;21.018;2024-02-26T03:05:11;99338.56;;;8.65;58.58
80248;BME280;69560;52.206;21.018;2024-02-26T03:07:38;99341.86;;;8.63;58.66
80248;BME280;69560;52.206;21.018;2024-02-26T03:10:05;99343.86;;;8.60;58.69
80248;BME280;69560;52.206;21.018;2024-02-26T03:12:33;99345.27;;;8.58;58.73
80248;BME280;69560;52.206;21.018;2024-02-26T03:15:00;99346.66;;;8.57;58.77
80248;BME280;69560;52.206;21.018;2024-02-26T03:17:29;99345.27;;;8.52;58.66
80248;BME280;69560;52.206;21.018;2024-02-26T03:19:56;99348.96;;;8.46;58.69
80248;BME280;69560;52.206;21.018;2024-02-26T03:22:22;99347.77;;;8.44;58.77
80248;BME280;69560;52.206;21.018;2024-02-26T03:24:49;99344.35;;;8.43;58.84
80248;BME280;69560;52.206;21.018;2024-02-26T03:27:16;99349.18;;;8.44;58.90
80248;BME280;69560;52.206;21.018;2024-02-26T03:29:42;99348.40;;;8.45;58.97
80248;BME280;69560;52.206;21.018;2024-02-26T03:32:09;99351.00;;;8.45;58.88
80248;BME280;69560;52.206;21.018;2024-02-26T03:34:35;99351.61;;;8.43;58.90
80248;BME280;69560;52.206;21.018;2024-02-26T03:37:02;99349.54;;;8.34;58.85
80248;BME280;69560;52.206;21.018;2024-02-26T03:39:28;99350.28;;;8.32;58.92
80248;BME280;69560;52.206;21.018;2024-02-26T03:41:55;99346.37;;;8.29;59.03
80248;BME280;69560;52.206;21.018;2024-02-26T03:44:22;99346.22;;;8.25;59.09
80248;BME280;69560;52.206;21.018;2024-02-26T03:46:48;99350.70;;;8.20;59.13
80248;BME280;69560;52.206;21.018;2024-02-26T03:49:15;99342.48;;;8.18;59.33
80248;BME280;69560;52.206;21.018;2024-02-26T03:51:41;99342.67;;;8.15;59.29
80248;BME280;69560;52.206;21.018;2024-02-26T03:54:07;99342.80;;;8.14;59.40
80248;BME280;69560;52.206;21.018;2024-02-26T03:56:34;99341.92;;;8.18;59.46
80248;BME280;69560;52.206;21.018;2024-02-26T03:59:01;99340.45;;;8.20;59.51
80248;BME280;69560;52.206;21.018;2024-02-26T04:01:28;99346.64;;;8.22;59.63
80248;BME280;69560;52.206;21.018;2024-02-26T04:03:55;99347.05;;;8.23;59.68
80248;BME280;69560;52.206;21.018;2024-02-26T04:06:22;99346.17;;;8.23;59.72
80248;BME280;69560;52.206;21.018;2024-02-26T04:08:49;99346.14;;;8.25;59.79
80248;BME280;69560;52.206;21.018;2024-02-26T04:11:15;99351.52;;;8.25;59.76
80248;BME280;69560;52.206;21.018;2024-02-26T04:13:44;99348.52;;;8.22;59.74
80248;BME280;69560;52.206;21.018;2024-02-26T04:16:17;99347.12;;;8.18;59.74
80248;BME280;69560;52.206;21.018;2024-02-26T04:18:43;99345.22;;;8.17;59.87
80248;BME280;69560;52.206;21.018;2024-02-26T04:21:10;99346.40;;;8.17;59.93
80248;BME280;69560;52.206;21.018;2024-02-26T04:23:36;99342.61;;;8.16;59.89
80248;BME280;69560;52.206;21.018;2024-02-26T04:26:03;99342.67;;;8.16;59.85
80248;BME280;69560;52.206;21.018;2024-02-26T04:28:30;99334.33;;;8.17;59.92
80248;BME280;69560;52.206;21.018;2024-02-26T04:30:56;99337.27;;;8.18;59.94
80248;BME280;69560;52.206;21.018;2024-02-26T04:33:23;99339.00;;;8.18;60.13
80248;BME280;69560;52.206;21.018;2024-02-26T04:35:49;99334.98;;;8.19;60.13
80248;BME280;69560;52.206;21.018;2024-02-26T04:38:16;99331.73;;;8.18;60.22
80248;BME280;69560;52.206;21.018;2024-02-26T04:40:42;99334.79;;;8.16;60.22
80248;BME280;69560;52.206;21.018;2024-02-26T04:43:09;99338.15;;;8.14;60.23
80248;BME280;69560;52.206;21.018;2024-02-26T04:45:35;99337.41;;;8.12;60.19
80248;BME280;69560;52.206;21.018;2024-02-26T04:48:03;99338.70;;;8.08;60.17
80248;BME280;69560;52.206;21.018;2024-02-26T04:50:30;99338.91;;;8.06;60.19
80248;BME280;69560;52.206;21.018;2024-02-26T04:52:56;99340.33;;;8.06;60.21
80248;BME280;69560;52.206;21.018;2024-02-26T04:55:23;99343.10;;;8.07;60.32
80248;BME280;69560;52.206;21.018;2024-02-26T04:57:49;99342.63;;;8.07;60.46
80248;BME280;69560;52.206;21.018;2024-02-26T05:00:16;99345.51;;;8.05;60.34
80248;BME280;69560;52.206;21.018;2024-02-26T05:02:43;99350.85;;;7.99;60.31
80248;BME280;69560;52.206;21.018;2024-02-26T05:05:09;99345.59;;;7.89;60.37
80248;BME280;69560;52.206;21.018;2024-02-26T05:07:40;99353.85;;;7.87;60.53
80248;BME280;69560;52.206;21.018;2024-02-26T05:10:07;99351.17;;;7.84;60.61
80248;BME280;69560;52.206;21.018;2024-02-26T05:12:34;99347.16;;;7.79;60.62
80248;BME280;69560;52.206;21.018;2024-02-26T05:15:03;99350.52;;;7.76;60.71
80248;BME280;69560;52.206;21.018;2024-02-26T05:17:29;99353.12;;;7.71;60.76
80248;BME280;69560;52.206;21.018;2024-02-26T05:19:56;99348.77;;;7.65;60.76
80248;BME280;69560;52.206;21.018;2024-02-26T05:22:22;99352.02;;;7.63;61.02
80248;BME280;69560;52.206;21.018;2024-02-26T05:24:49;99357.32;;;7.58;60.96
80248;BME280;69560;52.206;21.018;2024-02-26T05:27:15;99357.70;;;7.53;61.05
80248;BME280;69560;52.206;21.018;2024-02-26T05:29:42;99359.80;;;7.51;61.28
80248;BME280;69560;52.206;21.018;2024-02-26T05:32:08;99358.70;;;7.52;61.54
80248;BME280;69560;52.206;21.018;2024-02-26T05:34:35;99357.76;;;7.57;61.70
80248;BME280;69560;52.206;21.018;2024-02-26T05:37:01;99359.82;;;7.62;61.72
80248;BME280;69560;52.206;21.018;2024-02-26T05:39:28;99366.36;;;7.70;61.85
80248;BME280;69560;52.206;21.018;2024-02-26T05:41:54;99369.07;;;7.77;61.88
80248;BME280;69560;52.206;21.018;2024-02-26T05:44:22;99372.94;;;7.82;61.75
80248;BME280;69560;52.206;21.018;2024-02-26T05:46:49;99373.42;;;7.83;61.65
80248;BME280;69560;52.206;21.018;2024-02-26T05:49:15;99373.47;;;7.86;61.78
80248;BME280;69560;52.206;21.018;2024-02-26T05:51:42;99376.36;;;7.89;61.77
80248;BME280;69560;52.206;21.018;2024-02-26T05:54:09;99371.29;;;7.93;61.88
80248;BME280;69560;52.206;21.018;2024-02-26T05:56:36;99372.38;;;7.97;61.93
80248;BME280;69560;52.206;21.018;2024-02-26T05:59:03;99372.55;;;8.03;62.01
80248;BME280;69560;52.206;21.018;2024-02-26T06:01:30;99380.13;;;8.09;61.99
80248;BME280;69560;52.206;21.018;2024-02-26T06:03:57;99380.41;;;8.16;61.99
80248;BME280;69560;52.206;21.018;2024-02-26T06:06:23;99378.73;;;8.24;61.92
80248;BME280;69560;52.206;21.018;2024-02-26T06:08:50;99380.91;;;8.32;61.89
80248;BME280;69560;52.206;21.018;2024-02-26T06:11:16;99383.38;;;8.40;61.95
80248;BME280;69560;52.206;21.018;2024-02-26T06:13:43;99382.68;;;8.46;61.89
80248;BME280;69560;52.206;21.018;2024-02-26T06:16:09;99385.73;;;8.50;61.77
80248;BME280;69560;52.206;21.018;2024-02-26T06:18:36;99383.98;;;8.54;61.78
80248;BME280;69560;52.206;21.018;2024-02-26T06:21:03;99384.67;;;8.58;61.81
80248;BME280;69560;52.206;21.018;2024-02-26T06:23:29;99389.21;;;8.60;61.73
80248;BME280;69560;52.206;21.018;2024-02-26T06:25:56;99391.05;;;8.62;61.68
80248;BME280;69560;52.206;21.018;2024-02-26T06:28:22;99390.05;;;8.59;61.34
80248;BME280;69560;52.206;21.018;2024-02-26T06:30:49;99389.31;;;8.57;61.40
80248;BME280;69560;52.206;21.018;2024-02-26T06:33:16;99395.18;;;8.59;61.48
80248;BME280;69560;52.206;21.018;2024-02-26T06:35:43;99393.69;;;8.65;61.48
80248;BME280;69560;52.206;21.018;2024-02-26T06:38:10;99398.43;;;8.72;61.60
80248;BME280;69560;52.206;21.018;2024-02-26T06:40:39;99400.98;;;8.80;61.54
80248;BME280;69560;52.206;21.018;2024-02-26T06:43:06;99399.31;;;8.85;61.60
80248;BME280;69560;52.206;21.018;2024-02-26T06:45:32;99397.66;;;8.92;61.69
80248;BME280;69560;52.206;21.018;2024-02-26T06:47:59;99402.44;;;9.00;61.68
80248;BME280;69560;52.206;21.018;2024-02-26T06:50:26;99400.55;;;9.09;61.83
80248;BME280;69560;52.206;21.018;2024-02-26T06:52:52;99396.77;;;9.16;61.65
80248;BME280;69560;52.206;21.018;2024-02-26T06:55:19;99393.13;;;9.22;61.62
80248;BME280;69560;52.206;21.018;2024-02-26T06:57:46;99397.33;;;9.31;61.52
80248;BME280;69560;52.206;21.018;2024-02-26T07:00:13;99401.41;;;9.43;61.48
80248;BME280;69560;52.206;21.018;2024-02-26T07:02:43;99403.05;;;9.57;61.46
80248;BME280;69560;52.206;21.018;2024-02-26T07:05:09;99407.33;;;9.73;61.48
80248;BME280;69560;52.206;21.018;2024-02-26T07:07:36;99408.61;;;9.86;61.35
80248;BME280;69560;52.206;21.018;2024-02-26T07:10:03;99414.66;;;9.98;61.41
80248;BME280;69560;52.206;21.018;2024-02-26T07:12:32;99415.94;;;10.07;61.26
80248;BME280;69560;52.206;21.018;2024-02-26T07:14:58;99414.89;;;10.13;61.00
80248;BME280;69560;52.206;21.018;2024-02-26T07:17:25;99412.73;;;10.21;61.10
80248;BME280;69560;52.206;21.018;2024-02-26T07:19:51;99415.40;;;10.29;61.07
80248;BME280;69560;52.206;21.018;2024-02-26T07:22:19;99423.35;;;10.33;60.77
80248;BME280;69560;52.206;21.018;2024-02-26T07:24:45;99421.48;;;10.35;60.73
80248;BME280;69560;52.206;21.018;2024-02-26T07:27:12;99419.91;;;10.39;60.62
80248;BME280;69560;52.206;21.018;2024-02-26T07:29:39;99423.35;;;10.44;60.63
80248;BME280;69560;52.206;21.018;2024-02-26T07:32:06;99421.17;;;10.50;60.58
80248;BME280;69560;52.206;21.018;2024-02-26T07:34:32;99428.27;;;10.59;60.63
80248;BME280;69560;52.206;21.018;2024-02-26T07:36:59;99428.58;;;10.69;60.67
80248;BME280;69560;52.206;21.018;2024-02-26T07:39:26;99426.26;;;10.80;60.67
80248;BME280;69560;52.206;21.018;2024-02-26T07:41:52;99432.72;;;10.88;60.51
80248;BME280;69560;52.206;21.018;2024-02-26T07:44:19;99436.90;;;11.01;60.65
80248;BME280;69560;52.206;21.018;2024-02-26T07:46:45;99439.17;;;11.13;60.61
80248;BME280;69560;52.206;21.018;2024-02-26T07:49:12;99433.02;;;11.20;60.45
80248;BME280;69560;52.206;21.018;2024-02-26T07:51:38;99429.63;;;11.27;60.28
80248;BME280;69560;52.206;21.018;2024-02-26T07:54:05;99429.20;;;11.39;60.41
80248;BME280;69560;52.206;21.018;2024-02-26T07:56:32;99434.64;;;11.57;60.46
80248;BME280;69560;52.206;21.018;2024-02-26T07:58:59;99436.22;;;11.73;60.54
80248;BME280;69560;52.206;21.018;2024-02-26T08:01:25;99437.91;;;11.90;60.46
80248;BME280;69560;52.206;21.018;2024-02-26T08:03:53;99433.38;;;12.07;60.47
80248;BME280;69560;52.206;21.018;2024-02-26T08:06:20;99439.50;;;12.29;60.45
80248;BME280;69560;52.206;21.018;2024-02-26T08:08:46;99439.48;;;12.49;60.30
80248;BME280;69560;52.206;21.018;2024-02-26T08:11:16;99442.73;;;12.69;60.19
80248;BME280;69560;52.206;21.018;2024-02-26T08:13:42;99442.90;;;12.91;60.14
80248;BME280;69560;52.206;21.018;2024-02-26T08:16:09;99444.45;;;13.12;59.93
80248;BME280;69560;52.206;21.018;2024-02-26T08:18:35;99442.98;;;13.35;59.75
80248;BME280;69560;52.206;21.018;2024-02-26T08:21:02;99448.90;;;13.61;59.62
80248;BME280;69560;52.206;21.018;2024-02-26T08:23:30;99447.40;;;13.85;59.42
80248;BME280;69560;52.206;21.018;2024-02-26T08:25:57;99441.75;;;14.08;59.21
80248;BME280;69560;52.206;21.018;2024-02-26T08:28:24;99445.98;;;14.30;58.81
80248;BME280;69560;52.206;21.018;2024-02-26T08:30:51;99446.09;;;14.52;58.49
80248;BME280;69560;52.206;21.018;2024-02-26T08:33:17;99447.70;;;14.76;58.16
80248;BME280;69560;52.206;21.018;2024-02-26T08:35:44;99452.83;;;14.96;57.78
80248;BME280;69560;52.206;21.018;2024-02-26T08:38:10;99456.27;;;15.16;57.42
80248;BME280;69560;52.206;21.018;2024-02-26T08:40:37;99458.60;;;15.36;56.91
80248;BME280;69560;52.206;21.018;2024-02-26T08:43:04;99455.08;;;15.62;56.84
80248;BME280;69560;52.206;21.018;2024-02-26T08:45:30;99458.59;;;15.96;56.76
80248;BME280;69560;52.206;21.018;2024-02-26T08:47:56;99455.48;;;16.30;56.45
80248;BME280;69560;52.206;21.018;2024-02-26T08:50:25;99454.46;;;16.60;56.12
80248;BME280;69560;52.206;21.018;2024-02-26T08:52:53;99454.66;;;17.00;55.58
80248;BME280;69560;52.206;21.018;2024-02-26T08:55:19;99453.02;;;17.83;56.00
80248;BME280;69560;52.206;21.018;2024-02-26T08:57:47;99456.49;;;18.99;56.51
80248;BME280;69560;52.206;21.018;2024-02-26T09:00:14;99455.02;;;20.18;56.16
80248;BME280;69560;52.206;21.018;2024-02-26T09:02:41;99449.45;;;21.47;54.60
80248;BME280;69560;52.206;21.018;2024-02-26T09:05:10;99449.66;;;21.78;52.37
80248;BME280;69560;52.206;21.018;2024-02-26T09:07:36;99452.41;;;21.93;50.64
80248;BME280;69560;52.206;21.018;2024-02-26T09:10:04;99459.05;;;22.44;49.99
80248;BME280;69560;52.206;21.018;2024-02-26T09:12:31;99462.69;;;22.44;49.05
80248;BME280;69560;52.206;21.018;2024-02-26T09:14:58;99467.41;;;21.80;47.25
80248;BME280;69560;52.206;21.018;2024-02-26T09:17:24;99465.98;;;20.96;46.47
80248;BME280;69560;52.206;21.018;2024-02-26T09:19:51;99471.52;;;20.29;46.62
80248;BME280;69560;52.206;21.018;2024-02-26T09:22:17;99470.23;;;19.81;46.77
80248;BME280;69560;52.206;21.018;2024-02-26T09:24:44;99469.59;;;19.34;46.89
80248;BME280;69560;52.206;21.018;2024-02-26T09:27:10;99462.98;;;18.96;47.02
80248;BME280;69560;52.206;21.018;2024-02-26T09:29:37;99462.83;;;18.82;47.64
80248;BME280;69560;52.206;21.018;2024-02-26T09:32:03;99464.46;;;18.71;47.96
80248;BME280;69560;52.206;21.018;2024-02-26T09:34:30;99466.23;;;18.59;48.07
80248;BME280;69560;52.206;21.018;2024-02-26T09:36:56;99466.24;;;18.46;48.22
80248;BME280;69560;52.206;21.018;2024-02-26T09:39:23;99468.29;;;18.75;48.96
80248;BME280;69560;52.206;21.018;2024-02-26T09:41:50;99465.57;;;18.96;48.40
80248;BME280;69560;52.206;21.018;2024-02-26T09:44:20;99468.64;;;18.71;48.08
80248;BME280;69560;52.206;21.018;2024-02-26T09:46:52;99465.08;;;18.34;47.81
80248;BME280;69560;52.206;21.018;2024-02-26T09:49:21;99468.23;;;18.08;48.01
80248;BME280;69560;52.206;21.018;2024-02-26T09:51:49;99470.75;;;17.86;48.09
80248;BME280;69560;52.206;21.018;2024-02-26T09:54:16;99476.02;;;17.54;48.15
80248;BME280;69560;52.206;21.018;2024-02-26T09:56:45;99476.70;;;17.24;48.19
80248;BME280;69560;52.206;21.018;2024-02-26T09:59:17;99478.89;;;16.98;48.21
80248;BME280;69560;52.206;21.018;2024-02-26T10:01:44;99480.11;;;16.75;48.72
80248;BME280;69560;52.206;21.018;2024-02-26T10:04:13;99487.77;;;16.53;48.86
80248;BME280;69560;52.206;21.018;2024-02-26T10:06:40;99489.87;;;16.30;48.97
80248;BME280;69560;52.206;21.018;2024-02-26T10:09:08;99494.89;;;15.94;48.99
80248;BME280;69560;52.206;21.018;2024-02-26T10:11:36;99495.65;;;15.69;49.47
80248;BME280;69560;52.206;21.018;2024-02-26T10:14:04;99499.48;;;15.42;49.61
80248;BME280;69560;52.206;21.018;2024-02-26T10:16:30;99492.67;;;15.15;49.84
80248;BME280;69560;52.206;21.018;2024-02-26T10:18:58;99490.96;;;14.89;50.53
80248;BME280;69560;52.206;21.018;2024-02-26T10:21:25;99490.53;;;14.76;50.85
80248;BME280;69560;52.206;21.018;2024-02-26T10:23:51;99495.54;;;14.69;51.15
80248;BME280;69560;52.206;21.018;2024-02-26T10:26:19;99496.99;;;14.57;51.32
80248;BME280;69560;52.206;21.018;2024-02-26T10:28:45;99491.84;;;14.38;51.39
80248;BME280;69560;52.206;21.018;2024-02-26T10:31:14;99496.77;;;14.22;51.74
80248;BME280;69560;52.206;21.018;2024-02-26T10:33:42;99496.25;;;14.06;51.94
80248;BME280;69560;52.206;21.018;2024-02-26T10:36:09;99496.58;;;13.95;52.17
80248;BME280;69560;52.206;21.018;2024-02-26T10:38:37;99495.74;;;13.85;52.41
80248;BME280;69560;52.206;21.018;2024-02-26T10:41:07;99498.91;;;13.77;52.61
80248;BME280;69560;52.206;21.018;2024-02-26T10:43:39;99500.05;;;13.70;52.76
80248;BME280;69560;52.206;21.018;2024-02-26T10:46:06;99499.34;;;13.54;52.81
80248;BME280;69560;52.206;21.018;2024-02-26T10:48:33;99499.22;;;13.43;53.14
80248;BME280;69560;52.206;21.018;2024-02-26T10:51:00;99499.39;;;13.38;53.28
80248;BME280;69560;52.206;21.018;2024-02-26T10:53:29;99501.57;;;13.31;53.47
80248;BME280;69560;52.206;21.018;2024-02-26T10:56:02;99495.09;;;13.22;53.72
80248;BME280;69560;52.206;21.018;2024-02-26T10:58:31;99494.55;;;13.17;53.90
80248;BME280;69560;52.206;21.018;2024-02-26T11:00:58;99492.25;;;13.12;54.07
80248;BME280;69560;52.206;21.018;2024-02-26T11:03:26;99489.88;;;13.03;54.01
80248;BME280;69560;52.206;21.018;2024-02-26T11:05:53;99488.60;;;12.97;54.06
80248;BME280;69560;52.206;21.018;2024-02-26T11:08:21;99490.67;;;12.96;54.34
80248;BME280;69560;52.206;21.018;2024-02-26T11:10:52;99485.41;;;12.99;54.67
80248;BME280;69560;52.206;21.018;2024-02-26T11:13:21;99482.39;;;13.02;54.83
80248;BME280;69560;52.206;21.018;2024-02-26T11:15:48;99487.33;;;13.04;54.79
80248;BME280;69560;52.206;21.018;2024-02-26T11:18:16;99483.35;;;13.00;54.84
80248;BME280;69560;52.206;21.018;2024-02-26T11:20:46;99478.66;;;13.05;54.90
80248;BME280;69560;52.206;21.018;2024-02-26T11:23:14;99476.98;;;13.49;55.78
80248;BME280;69560;52.206;21.018;2024-02-26T11:25:42;99478.44;;;14.44;57.06
80248;BME280;69560;52.206;21.018;2024-02-26T11:28:12;99479.83;;;15.36;57.02
80248;BME280;69560;52.206;21.018;2024-02-26T11:30:45;99478.20;;;16.24;56.17
80248;BME280;69560;52.206;21.018;2024-02-26T11:33:16;99476.25;;;16.62;54.53
80248;BME280;69560;52.206;21.018;2024-02-26T11:35:50;99475.20;;;16.89;53.47
80248;BME280;69560;52.206;21.018;2024-02-26T11:38:24;99475.48;;;17.41;52.78
80248;BME280;69560;52.206;21.018;2024-02-26T11:40:53;99475.72;;;17.68;51.93
80248;BME280;69560;52.206;21.018;2024-02-26T11:43:23;99470.27;;;17.69;51.10
80248;BME280;69560;52.206;21.018;2024-02-26T11:49:37;99471.08;;;17.79;50.28
80248;BME280;69560;52.206;21.018;2024-02-26T11:52:08;99469.80;;;18.70;51.00
80248;BME280;69560;52.206;21.018;2024-02-26T11:54:54;99467.83;;;21.32;51.58
80248;BME280;69560;52.206;21.018;2024-02-26T12:00:15;99464.40;;;26.55;48.41
80248;BME280;69560;52.206;21.018;2024-02-26T12:02:55;99473.00;;;28.55;45.45
80248;BME280;69560;52.206;21.018;2024-02-26T12:05:31;99477.93;;;29.17;42.03
80248;BME280;69560;52.206;21.018;2024-02-26T12:08:07;99467.92;;;29.42;41.31
80248;BME280;69560;52.206;21.018;2024-02-26T12:10:36;99467.79;;;31.37;40.20
80248;BME280;69560;52.206;21.018;2024-02-26T12:13:15;99469.02;;;32.93;38.59
80248;BME280;69560;52.206;21.018;2024-02-26T12:15:54;99467.93;;;34.08;36.40
80248;BME280;69560;52.206;21.018;2024-02-26T12:18:22;99464.37;;;34.79;34.30
80248;BME280;69560;52.206;21.018;2024-02-26T12:20:59;99463.54;;;35.55;33.43
80248;BME280;69560;52.206;21.018;2024-02-26T12:23:27;99468.91;;;36.67;32.80
80248;BME280;69560;52.206;21.018;2024-02-26T12:26:01;99466.73;;;36.92;30.96
80248;BME280;69560;52.206;21.018;2024-02-26T12:28:31;99464.66;;;37.47;30.61
80248;BME280;69560;52.206;21.018;2024-02-26T12:30:58;99472.64;;;38.32;30.12
80248;BME280;69560;52.206;21.018;2024-02-26T12:33:26;99477.18;;;38.92;29.34
80248;BME280;69560;52.206;21.018;2024-02-26T12:35:53;99474.56;;;38.25;28.21
80248;BME280;69560;52.206;21.018;2024-02-26T12:38:20;99468.46;;;37.00;27.54
80248;BME280;69560;52.206;21.018;2024-02-26T12:40:47;99469.16;;;35.53;26.66
80248;BME280;69560;52.206;21.018;2024-02-26T12:43:15;99469.87;;;34.59;26.97
80248;BME280;69560;52.206;21.018;2024-02-26T12:45:43;99469.70;;;34.62;27.29
80248;BME280;69560;52.206;21.018;2024-02-26T12:48:13;99459.35;;;35.23;27.88
80248;BME280;69560;52.206;21.018;2024-02-26T12:50:44;99462.59;;;35.88;27.77
80248;BME280;69560;52.206;21.018;2024-02-26T12:53:11;99466.70;;;36.22;27.29
80248;BME280;69560;52.206;21.018;2024-02-26T12:55:38;99470.03;;;36.39;27.07
80248;BME280;69560;52.206;21.018;2024-02-26T12:58:06;99469.15;;;36.36;26.75
80248;BME280;69560;52.206;21.018;2024-02-26T13:00:34;99460.03;;;35.99;26.75
80248;BME280;69560;52.206;21.018;2024-02-26T13:03:01;99463.12;;;35.29;26.92